sensor_id;sensor_type;location;lat;lon;timestamp;P1;durP1;ratioP1;P2;durP2;ratioP2
78197;SDS011;67472;51.554;7.812;2023-11-19T00:01:20;0.88;;;0.40;;
78197;SDS011;67472;51.554;7.812;2023-11-19T00:04:06;0.85;;;0.55;;
78197;SDS011;67472;51.554;7.812;2023-11-19T00:06:53;0.47;;;0.47;;
78197;SDS011;67472;51.554;7.812;2023-11-19T00:09:41;0.77;;;0.43;;
78197;SDS011;67472;51.554;7.812;2023-11-19T00:12:28;0.50;;;0.50;;
78197;SDS011;67472;51.554;7.812;2023-11-19T00:15:14;0.50;;;0.50;;
78197;SDS011;67472;51.554;7.812;2023-11-19T00:18:02;0.50;;;0.50;;
78197;SDS011;67472;51.554;7.812;2023-11-19T00:20:50;0.60;;;0.60;;
78197;SDS011;67472;51.554;7.812;2023-11-19T00:23:36;0.63;;;0.50;;
78197;SDS011;67472;51.554;7.812;2023-11-19T00:26:23;0.50;;;0.50;;
78197;SDS011;67472;51.554;7.812;2023-11-19T00:29:11;0.45;;;0.40;;
78197;SDS011;67472;51.554;7.812;2023-11-19T00:31:58;0.70;;;0.45;;
78197;SDS011;67472;51.554;7.812;2023-11-19T00:34:45;0.30;;;0.30;;
78197;SDS011;67472;51.554;7.812;2023-11-19T00:37:33;0.50;;;0.50;;
78197;SDS011;67472;51.554;7.812;2023-11-19T00:40:19;0.40;;;0.40;;
78197;SDS011;67472;51.554;7.812;2023-11-19T00:43:09;0.30;;;0.30;;
78197;SDS011;67472;51.554;7.812;2023-11-19T00:45:55;0.45;;;0.45;;
78197;SDS011;67472;51.554;7.812;2023-11-19T00:48:42;0.50;;;0.50;;
78197;SDS011;67472;51.554;7.812;2023-11-19T00:51:28;2.53;;;0.85;;
78197;SDS011;67472;51.554;7.812;2023-11-19T00:54:16;1.98;;;0.52;;
78197;SDS011;67472;51.554;7.812;2023-11-19T00:57:02;1.27;;;0.77;;
78197;SDS011;67472;51.554;7.812;2023-11-19T00:59:52;0.60;;;0.60;;
78197;SDS011;67472;51.554;7.812;2023-11-19T01:02:38;1.85;;;0.70;;
78197;SDS011;67472;51.554;7.812;2023-11-19T01:05:26;1.10;;;1.10;;
78197;SDS011;67472;51.554;7.812;2023-11-19T01:08:13;0.93;;;0.90;;
78197;SDS011;67472;51.554;7.812;2023-11-19T01:11:00;0.98;;;0.88;;
78197;SDS011;67472;51.554;7.812;2023-11-19T01:13:49;0.90;;;0.90;;
78197;SDS011;67472;51.554;7.812;2023-11-19T01:16:40;1.42;;;0.80;;
78197;SDS011;67472;51.554;7.812;2023-11-19T01:19:28;1.13;;;1.02;;
78197;SDS011;67472;51.554;7.812;2023-11-19T01:22:14;3.10;;;0.93;;
78197;SDS011;67472;51.554;7.812;2023-11-19T01:25:01;1.20;;;1.10;;
78197;SDS011;67472;51.554;7.812;2023-11-19T01:27:50;1.08;;;1.00;;
78197;SDS011;67472;51.554;7.812;2023-11-19T01:30:37;1.50;;;1.40;;
78197;SDS011;67472;51.554;7.812;2023-11-19T01:33:25;2.00;;;1.27;;
78197;SDS011;67472;51.554;7.812;2023-11-19T01:36:12;1.52;;;1.42;;
78197;SDS011;67472;51.554;7.812;2023-11-19T01:38:59;2.03;;;1.75;;
78197;SDS011;67472;51.554;7.812;2023-11-19T01:41:46;2.50;;;2.30;;
78197;SDS011;67472;51.554;7.812;2023-11-19T01:44:32;1.70;;;1.60;;
78197;SDS011;67472;51.554;7.812;2023-11-19T01:47:18;3.28;;;2.13;;
78197;SDS011;67472;51.554;7.812;2023-11-19T01:50:08;1.98;;;1.88;;
78197;SDS011;67472;51.554;7.812;2023-11-19T01:52:55;2.22;;;2.03;;
78197;SDS011;67472;51.554;7.812;2023-11-19T01:55:45;2.47;;;2.28;;
78197;SDS011;67472;51.554;7.812;2023-11-19T01:58:33;3.38;;;2.20;;
78197;SDS011;67472;51.554;7.812;2023-11-19T02:01:19;4.45;;;2.20;;
78197;SDS011;67472;51.554;7.812;2023-11-19T02:04:06;4.30;;;2.17;;
78197;SDS011;67472;51.554;7.812;2023-11-19T02:06:58;3.10;;;2.17;;
78197;SDS011;67472;51.554;7.812;2023-11-19T02:09:44;2.55;;;2.08;;
78197;SDS011;67472;51.554;7.812;2023-11-19T02:12:31;2.22;;;2.13;;
78197;SDS011;67472;51.554;7.812;2023-11-19T02:15:18;2.90;;;2.25;;
78197;SDS011;67472;51.554;7.812;2023-11-19T02:18:17;2.75;;;2.40;;
78197;SDS011;67472;51.554;7.812;2023-11-19T02:21:05;3.05;;;2.63;;
78197;SDS011;67472;51.554;7.812;2023-11-19T02:23:54;2.85;;;2.65;;
78197;SDS011;67472;51.554;7.812;2023-11-19T02:26:43;2.85;;;2.65;;
78197;SDS011;67472;51.554;7.812;2023-11-19T02:29:42;2.60;;;2.40;;
78197;SDS011;67472;51.554;7.812;2023-11-19T02:32:28;2.13;;;2.03;;
78197;SDS011;67472;51.554;7.812;2023-11-19T02:35:15;3.38;;;2.03;;
78197;SDS011;67472;51.554;7.812;2023-11-19T02:38:02;1.85;;;1.75;;
78197;SDS011;67472;51.554;7.812;2023-11-19T02:40:51;2.20;;;2.00;;
78197;SDS011;67472;51.554;7.812;2023-11-19T02:43:38;3.85;;;2.00;;
78197;SDS011;67472;51.554;7.812;2023-11-19T02:46:27;3.92;;;1.80;;
78197;SDS011;67472;51.554;7.812;2023-11-19T02:49:14;1.80;;;1.70;;
78197;SDS011;67472;51.554;7.812;2023-11-19T02:52:01;2.03;;;1.83;;
78197;SDS011;67472;51.554;7.812;2023-11-19T02:54:48;3.33;;;1.90;;
78197;SDS011;67472;51.554;7.812;2023-11-19T02:57:35;2.97;;;1.88;;
78197;SDS011;67472;51.554;7.812;2023-11-19T03:00:22;2.67;;;1.83;;
78197;SDS011;67472;51.554;7.812;2023-11-19T03:03:11;6.05;;;2.08;;
78197;SDS011;67472;51.554;7.812;2023-11-19T03:06:05;4.18;;;1.90;;
78197;SDS011;67472;51.554;7.812;2023-11-19T03:08:51;4.50;;;2.03;;
78197;SDS011;67472;51.554;7.812;2023-11-19T03:11:37;3.17;;;1.83;;
78197;SDS011;67472;51.554;7.812;2023-11-19T03:14:24;10.00;;;2.15;;
78197;SDS011;67472;51.554;7.812;2023-11-19T03:17:10;8.95;;;2.85;;
78197;SDS011;67472;51.554;7.812;2023-11-19T03:19:58;4.60;;;1.80;;
78197;SDS011;67472;51.554;7.812;2023-11-19T03:22:45;4.60;;;1.83;;
78197;SDS011;67472;51.554;7.812;2023-11-19T03:25:32;5.82;;;1.90;;
78197;SDS011;67472;51.554;7.812;2023-11-19T03:28:19;8.63;;;2.33;;
78197;SDS011;67472;51.554;7.812;2023-11-19T03:31:06;5.10;;;1.80;;
78197;SDS011;67472;51.554;7.812;2023-11-19T03:33:54;7.00;;;1.75;;
78197;SDS011;67472;51.554;7.812;2023-11-19T03:36:42;7.90;;;2.08;;
78197;SDS011;67472;51.554;7.812;2023-11-19T03:39:30;10.35;;;2.30;;
78197;SDS011;67472;51.554;7.812;2023-11-19T03:42:16;6.53;;;1.75;;
78197;SDS011;67472;51.554;7.812;2023-11-19T03:45:05;9.75;;;2.22;;
78197;SDS011;67472;51.554;7.812;2023-11-19T03:47:53;10.35;;;2.40;;
78197;SDS011;67472;51.554;7.812;2023-11-19T03:50:39;5.85;;;2.08;;
78197;SDS011;67472;51.554;7.812;2023-11-19T03:53:28;13.93;;;2.42;;
78197;SDS011;67472;51.554;7.812;2023-11-19T03:56:15;6.65;;;1.98;;
78197;SDS011;67472;51.554;7.812;2023-11-19T03:59:02;12.57;;;2.45;;
78197;SDS011;67472;51.554;7.812;2023-11-19T04:01:48;6.60;;;2.35;;
78197;SDS011;67472;51.554;7.812;2023-11-19T04:04:36;11.73;;;2.58;;
78197;SDS011;67472;51.554;7.812;2023-11-19T04:07:23;9.70;;;2.45;;
78197;SDS011;67472;51.554;7.812;2023-11-19T04:10:11;11.70;;;2.72;;
78197;SDS011;67472;51.554;7.812;2023-11-19T04:12:59;8.18;;;2.58;;
78197;SDS011;67472;51.554;7.812;2023-11-19T04:15:45;14.05;;;2.80;;
78197;SDS011;67472;51.554;7.812;2023-11-19T04:18:32;9.40;;;3.10;;
78197;SDS011;67472;51.554;7.812;2023-11-19T04:21:18;6.85;;;2.40;;
78197;SDS011;67472;51.554;7.812;2023-11-19T04:24:05;15.07;;;2.90;;
78197;SDS011;67472;51.554;7.812;2023-11-19T04:26:53;10.63;;;3.60;;
78197;SDS011;67472;51.554;7.812;2023-11-19T04:29:40;20.20;;;3.45;;
78197;SDS011;67472;51.554;7.812;2023-11-19T04:32:26;13.77;;;3.50;;
78197;SDS011;67472;51.554;7.812;2023-11-19T04:35:13;13.55;;;2.78;;
78197;SDS011;67472;51.554;7.812;2023-11-19T04:38:00;17.30;;;3.50;;
78197;SDS011;67472;51.554;7.812;2023-11-19T04:40:47;15.88;;;3.53;;
78197;SDS011;67472;51.554;7.812;2023-11-19T04:43:35;17.48;;;3.55;;
78197;SDS011;67472;51.554;7.812;2023-11-19T04:46:21;16.88;;;2.95;;
78197;SDS011;67472;51.554;7.812;2023-11-19T04:49:08;13.80;;;3.03;;
78197;SDS011;67472;51.554;7.812;2023-11-19T04:51:55;21.65;;;4.45;;
78197;SDS011;67472;51.554;7.812;2023-11-19T04:54:42;16.60;;;3.95;;
78197;SDS011;67472;51.554;7.812;2023-11-19T04:57:28;20.20;;;3.70;;
78197;SDS011;67472;51.554;7.812;2023-11-19T05:00:18;13.50;;;4.50;;
78197;SDS011;67472;51.554;7.812;2023-11-19T05:03:06;18.65;;;3.42;;
78197;SDS011;67472;51.554;7.812;2023-11-19T05:05:53;20.27;;;3.35;;
78197;SDS011;67472;51.554;7.812;2023-11-19T05:08:39;15.20;;;2.85;;
78197;SDS011;67472;51.554;7.812;2023-11-19T05:11:26;8.23;;;2.53;;
78197;SDS011;67472;51.554;7.812;2023-11-19T05:14:13;14.52;;;2.97;;
78197;SDS011;67472;51.554;7.812;2023-11-19T05:17:05;13.82;;;3.45;;
78197;SDS011;67472;51.554;7.812;2023-11-19T05:19:53;15.38;;;2.83;;
78197;SDS011;67472;51.554;7.812;2023-11-19T05:22:39;15.35;;;2.80;;
78197;SDS011;67472;51.554;7.812;2023-11-19T05:25:26;12.55;;;3.13;;
78197;SDS011;67472;51.554;7.812;2023-11-19T05:28:12;27.27;;;4.35;;
78197;SDS011;67472;51.554;7.812;2023-11-19T05:30:59;17.95;;;3.88;;
78197;SDS011;67472;51.554;7.812;2023-11-19T05:33:46;21.10;;;4.25;;
78197;SDS011;67472;51.554;7.812;2023-11-19T05:36:33;18.75;;;5.53;;
78197;SDS011;67472;51.554;7.812;2023-11-19T05:39:19;18.02;;;3.75;;
78197;SDS011;67472;51.554;7.812;2023-11-19T05:42:06;18.88;;;3.88;;
78197;SDS011;67472;51.554;7.812;2023-11-19T05:44:53;21.30;;;4.15;;
78197;SDS011;67472;51.554;7.812;2023-11-19T05:47:39;17.55;;;4.63;;
78197;SDS011;67472;51.554;7.812;2023-11-19T05:50:27;18.30;;;4.85;;
78197;SDS011;67472;51.554;7.812;2023-11-19T05:53:14;20.60;;;4.68;;
78197;SDS011;67472;51.554;7.812;2023-11-19T05:56:01;28.02;;;4.63;;
78197;SDS011;67472;51.554;7.812;2023-11-19T05:58:48;20.02;;;4.93;;
78197;SDS011;67472;51.554;7.812;2023-11-19T06:01:35;21.52;;;4.05;;
78197;SDS011;67472;51.554;7.812;2023-11-19T06:04:22;17.80;;;3.50;;
78197;SDS011;67472;51.554;7.812;2023-11-19T06:07:10;20.52;;;4.65;;
78197;SDS011;67472;51.554;7.812;2023-11-19T06:09:56;15.50;;;3.45;;
78197;SDS011;67472;51.554;7.812;2023-11-19T06:12:44;18.52;;;4.05;;
78197;SDS011;67472;51.554;7.812;2023-11-19T06:15:30;23.77;;;4.90;;
78197;SDS011;67472;51.554;7.812;2023-11-19T06:18:17;19.77;;;4.40;;
78197;SDS011;67472;51.554;7.812;2023-11-19T06:21:04;24.27;;;4.90;;
78197;SDS011;67472;51.554;7.812;2023-11-19T06:23:53;16.10;;;4.03;;
78197;SDS011;67472;51.554;7.812;2023-11-19T06:26:40;20.05;;;3.90;;
78197;SDS011;67472;51.554;7.812;2023-11-19T06:29:26;18.73;;;3.38;;
78197;SDS011;67472;51.554;7.812;2023-11-19T06:32:12;17.80;;;4.55;;
78197;SDS011;67472;51.554;7.812;2023-11-19T06:34:59;14.43;;;4.05;;
78197;SDS011;67472;51.554;7.812;2023-11-19T06:37:46;20.90;;;5.13;;
78197;SDS011;67472;51.554;7.812;2023-11-19T06:40:34;19.60;;;3.63;;
78197;SDS011;67472;51.554;7.812;2023-11-19T06:43:20;18.30;;;3.85;;
78197;SDS011;67472;51.554;7.812;2023-11-19T06:46:14;16.45;;;3.65;;
78197;SDS011;67472;51.554;7.812;2023-11-19T06:49:00;15.63;;;4.22;;
78197;SDS011;67472;51.554;7.812;2023-11-19T06:51:47;22.77;;;4.53;;
78197;SDS011;67472;51.554;7.812;2023-11-19T06:54:34;16.38;;;4.78;;
78197;SDS011;67472;51.554;7.812;2023-11-19T06:57:22;18.90;;;3.70;;
78197;SDS011;67472;51.554;7.812;2023-11-19T07:00:10;20.65;;;4.45;;
78197;SDS011;67472;51.554;7.812;2023-11-19T07:02:57;22.40;;;4.82;;
78197;SDS011;67472;51.554;7.812;2023-11-19T07:05:44;23.20;;;4.38;;
78197;SDS011;67472;51.554;7.812;2023-11-19T07:08:31;15.55;;;3.95;;
78197;SDS011;67472;51.554;7.812;2023-11-19T07:11:18;26.15;;;4.32;;
78197;SDS011;67472;51.554;7.812;2023-11-19T07:14:06;28.73;;;5.60;;
78197;SDS011;67472;51.554;7.812;2023-11-19T07:16:52;25.58;;;3.70;;
78197;SDS011;67472;51.554;7.812;2023-11-19T07:19:40;19.70;;;3.85;;
78197;SDS011;67472;51.554;7.812;2023-11-19T07:22:27;21.50;;;4.22;;
78197;SDS011;67472;51.554;7.812;2023-11-19T07:25:15;25.85;;;4.75;;
78197;SDS011;67472;51.554;7.812;2023-11-19T07:28:02;27.40;;;5.43;;
78197;SDS011;67472;51.554;7.812;2023-11-19T07:30:51;18.15;;;3.55;;
78197;SDS011;67472;51.554;7.812;2023-11-19T07:33:37;21.83;;;3.45;;
78197;SDS011;67472;51.554;7.812;2023-11-19T07:36:26;23.67;;;4.40;;
78197;SDS011;67472;51.554;7.812;2023-11-19T07:39:15;22.95;;;4.28;;
78197;SDS011;67472;51.554;7.812;2023-11-19T07:42:02;24.25;;;4.95;;
78197;SDS011;67472;51.554;7.812;2023-11-19T07:44:53;17.42;;;4.03;;
78197;SDS011;67472;51.554;7.812;2023-11-19T07:47:44;24.40;;;4.43;;
78197;SDS011;67472;51.554;7.812;2023-11-19T07:50:30;22.88;;;3.55;;
78197;SDS011;67472;51.554;7.812;2023-11-19T07:53:17;20.00;;;3.75;;
78197;SDS011;67472;51.554;7.812;2023-11-19T07:56:07;20.92;;;3.80;;
78197;SDS011;67472;51.554;7.812;2023-11-19T07:58:56;21.33;;;3.70;;
78197;SDS011;67472;51.554;7.812;2023-11-19T08:01:42;22.23;;;4.07;;
78197;SDS011;67472;51.554;7.812;2023-11-19T08:04:31;19.05;;;4.05;;
78197;SDS011;67472;51.554;7.812;2023-11-19T08:07:19;17.13;;;3.63;;
78197;SDS011;67472;51.554;7.812;2023-11-19T08:10:07;22.38;;;5.10;;
78197;SDS011;67472;51.554;7.812;2023-11-19T08:12:55;22.02;;;3.38;;
78197;SDS011;67472;51.554;7.812;2023-11-19T08:15:42;22.95;;;4.00;;
78197;SDS011;67472;51.554;7.812;2023-11-19T08:18:30;27.38;;;4.63;;
78197;SDS011;67472;51.554;7.812;2023-11-19T08:21:20;23.23;;;5.07;;
78197;SDS011;67472;51.554;7.812;2023-11-19T08:24:07;19.23;;;4.10;;
78197;SDS011;67472;51.554;7.812;2023-11-19T08:26:54;20.25;;;4.05;;
78197;SDS011;67472;51.554;7.812;2023-11-19T08:29:41;28.17;;;5.22;;
78197;SDS011;67472;51.554;7.812;2023-11-19T08:32:28;21.00;;;3.63;;
78197;SDS011;67472;51.554;7.812;2023-11-19T08:35:15;22.65;;;5.07;;
78197;SDS011;67472;51.554;7.812;2023-11-19T08:38:04;23.77;;;4.57;;
78197;SDS011;67472;51.554;7.812;2023-11-19T08:40:51;25.85;;;4.75;;
78197;SDS011;67472;51.554;7.812;2023-11-19T08:43:38;18.85;;;4.05;;
78197;SDS011;67472;51.554;7.812;2023-11-19T08:46:25;26.33;;;5.25;;
78197;SDS011;67472;51.554;7.812;2023-11-19T08:49:19;19.23;;;4.00;;
78197;SDS011;67472;51.554;7.812;2023-11-19T08:52:06;20.83;;;4.13;;
78197;SDS011;67472;51.554;7.812;2023-11-19T08:54:55;27.63;;;5.57;;
78197;SDS011;67472;51.554;7.812;2023-11-19T08:57:43;28.50;;;4.35;;
78197;SDS011;67472;51.554;7.812;2023-11-19T09:00:30;14.32;;;4.18;;
78197;SDS011;67472;51.554;7.812;2023-11-19T09:03:22;19.67;;;4.22;;
78197;SDS011;67472;51.554;7.812;2023-11-19T09:06:20;21.02;;;3.85;;
78197;SDS011;67472;51.554;7.812;2023-11-19T09:09:15;23.65;;;4.28;;
78197;SDS011;67472;51.554;7.812;2023-11-19T09:12:08;21.08;;;4.72;;
78197;SDS011;67472;51.554;7.812;2023-11-19T09:14:57;26.27;;;4.22;;
78197;SDS011;67472;51.554;7.812;2023-11-19T09:18:00;34.45;;;6.53;;
78197;SDS011;67472;51.554;7.812;2023-11-19T09:20:49;31.02;;;4.85;;
78197;SDS011;67472;51.554;7.812;2023-11-19T09:23:48;25.77;;;4.22;;
78197;SDS011;67472;51.554;7.812;2023-11-19T09:26:37;27.50;;;4.13;;
78197;SDS011;67472;51.554;7.812;2023-11-19T09:32:34;19.75;;;4.13;;
78197;SDS011;67472;51.554;7.812;2023-11-19T09:35:22;22.02;;;4.65;;
78197;SDS011;67472;51.554;7.812;2023-11-19T09:38:11;20.50;;;4.10;;
78197;SDS011;67472;51.554;7.812;2023-11-19T09:41:10;19.48;;;4.05;;
78197;SDS011;67472;51.554;7.812;2023-11-19T09:44:09;21.83;;;4.60;;
78197;SDS011;67472;51.554;7.812;2023-11-19T09:47:24;22.85;;;5.18;;
78197;SDS011;67472;51.554;7.812;2023-11-19T09:53:28;24.00;;;4.65;;
78197;SDS011;67472;51.554;7.812;2023-11-19T09:56:19;24.50;;;4.53;;
78197;SDS011;67472;51.554;7.812;2023-11-19T09:59:05;21.55;;;4.85;;
78197;SDS011;67472;51.554;7.812;2023-11-19T10:01:56;25.02;;;4.20;;
78197;SDS011;67472;51.554;7.812;2023-11-19T10:04:47;28.58;;;5.20;;
78197;SDS011;67472;51.554;7.812;2023-11-19T10:07:45;22.13;;;4.05;;
78197;SDS011;67472;51.554;7.812;2023-11-19T10:10:37;25.52;;;4.03;;
78197;SDS011;67472;51.554;7.812;2023-11-19T10:13:26;23.27;;;4.50;;
78197;SDS011;67472;51.554;7.812;2023-11-19T10:16:14;26.90;;;4.90;;
78197;SDS011;67472;51.554;7.812;2023-11-19T10:19:11;25.33;;;6.35;;
78197;SDS011;67472;51.554;7.812;2023-11-19T10:22:07;25.42;;;4.45;;
78197;SDS011;67472;51.554;7.812;2023-11-19T10:24:53;23.52;;;4.32;;
78197;SDS011;67472;51.554;7.812;2023-11-19T10:27:41;21.73;;;4.50;;
78197;SDS011;67472;51.554;7.812;2023-11-19T10:30:37;27.10;;;4.95;;
78197;SDS011;67472;51.554;7.812;2023-11-19T10:33:24;22.80;;;3.88;;
78197;SDS011;67472;51.554;7.812;2023-11-19T10:36:19;23.65;;;5.18;;
78197;SDS011;67472;51.554;7.812;2023-11-19T10:39:11;22.05;;;4.82;;
78197;SDS011;67472;51.554;7.812;2023-11-19T10:41:57;27.02;;;5.28;;
78197;SDS011;67472;51.554;7.812;2023-11-19T10:45:02;18.05;;;4.68;;
78197;SDS011;67472;51.554;7.812;2023-11-19T10:47:51;19.20;;;4.88;;
78197;SDS011;67472;51.554;7.812;2023-11-19T10:50:39;28.80;;;4.30;;
78197;SDS011;67472;51.554;7.812;2023-11-19T10:53:29;31.63;;;6.07;;
78197;SDS011;67472;51.554;7.812;2023-11-19T10:56:19;23.88;;;5.13;;
78197;SDS011;67472;51.554;7.812;2023-11-19T10:59:13;23.13;;;4.68;;
78197;SDS011;67472;51.554;7.812;2023-11-19T11:02:03;22.40;;;5.15;;
78197;SDS011;67472;51.554;7.812;2023-11-19T11:04:54;20.10;;;4.13;;
78197;SDS011;67472;51.554;7.812;2023-11-19T11:07:42;18.38;;;4.78;;
78197;SDS011;67472;51.554;7.812;2023-11-19T11:10:30;20.05;;;4.07;;
78197;SDS011;67472;51.554;7.812;2023-11-19T11:13:22;25.25;;;5.50;;
78197;SDS011;67472;51.554;7.812;2023-11-19T11:16:10;25.38;;;4.70;;
78197;SDS011;67472;51.554;7.812;2023-11-19T11:18:56;24.40;;;4.20;;
78197;SDS011;67472;51.554;7.812;2023-11-19T11:21:44;30.67;;;4.68;;
78197;SDS011;67472;51.554;7.812;2023-11-19T11:28:01;23.20;;;3.97;;
78197;SDS011;67472;51.554;7.812;2023-11-19T11:31:03;24.58;;;5.25;;
78197;SDS011;67472;51.554;7.812;2023-11-19T11:34:09;22.85;;;4.25;;
78197;SDS011;67472;51.554;7.812;2023-11-19T11:37:13;23.00;;;4.00;;
78197;SDS011;67472;51.554;7.812;2023-11-19T11:40:09;22.17;;;4.05;;
78197;SDS011;67472;51.554;7.812;2023-11-19T11:43:03;22.92;;;5.40;;
78197;SDS011;67472;51.554;7.812;2023-11-19T11:45:53;16.77;;;3.83;;
78197;SDS011;67472;51.554;7.812;2023-11-19T11:48:43;21.77;;;3.83;;
78197;SDS011;67472;51.554;7.812;2023-11-19T11:54:48;21.63;;;4.10;;
78197;SDS011;67472;51.554;7.812;2023-11-19T11:57:36;27.63;;;5.03;;
78197;SDS011;67472;51.554;7.812;2023-11-19T12:00:25;22.88;;;4.60;;
78197;SDS011;67472;51.554;7.812;2023-11-19T12:03:13;20.13;;;3.97;;
78197;SDS011;67472;51.554;7.812;2023-11-19T12:06:00;26.92;;;4.05;;
78197;SDS011;67472;51.554;7.812;2023-11-19T12:08:48;22.75;;;4.78;;
78197;SDS011;67472;51.554;7.812;2023-11-19T12:11:35;23.30;;;5.03;;
78197;SDS011;67472;51.554;7.812;2023-11-19T12:17:41;21.60;;;3.85;;
78197;SDS011;67472;51.554;7.812;2023-11-19T12:20:33;28.30;;;5.15;;
78197;SDS011;67472;51.554;7.812;2023-11-19T12:23:23;19.10;;;4.30;;
78197;SDS011;67472;51.554;7.812;2023-11-19T12:26:20;26.75;;;3.50;;
78197;SDS011;67472;51.554;7.812;2023-11-19T12:29:18;15.88;;;3.50;;
78197;SDS011;67472;51.554;7.812;2023-11-19T12:32:06;14.98;;;4.47;;
78197;SDS011;67472;51.554;7.812;2023-11-19T12:34:52;20.00;;;4.50;;
78197;SDS011;67472;51.554;7.812;2023-11-19T12:37:40;17.98;;;3.38;;
78197;SDS011;67472;51.554;7.812;2023-11-19T12:40:30;21.75;;;5.38;;
78197;SDS011;67472;51.554;7.812;2023-11-19T12:43:22;15.30;;;3.85;;
78197;SDS011;67472;51.554;7.812;2023-11-19T12:46:19;16.10;;;3.70;;
78197;SDS011;67472;51.554;7.812;2023-11-19T12:49:08;18.95;;;3.55;;
78197;SDS011;67472;51.554;7.812;2023-11-19T12:52:00;19.00;;;3.63;;
78197;SDS011;67472;51.554;7.812;2023-11-19T12:54:46;19.90;;;4.20;;
78197;SDS011;67472;51.554;7.812;2023-11-19T12:57:38;26.30;;;4.20;;
78197;SDS011;67472;51.554;7.812;2023-11-19T13:00:27;13.35;;;3.05;;
78197;SDS011;67472;51.554;7.812;2023-11-19T13:03:14;21.17;;;4.30;;
78197;SDS011;67472;51.554;7.812;2023-11-19T13:06:16;17.05;;;4.28;;
78197;SDS011;67472;51.554;7.812;2023-11-19T13:09:05;16.98;;;3.40;;
78197;SDS011;67472;51.554;7.812;2023-11-19T13:11:57;16.25;;;4.55;;
78197;SDS011;67472;51.554;7.812;2023-11-19T13:14:51;20.48;;;3.95;;
78197;SDS011;67472;51.554;7.812;2023-11-19T13:17:38;15.57;;;3.20;;
78197;SDS011;67472;51.554;7.812;2023-11-19T13:20:24;19.63;;;3.13;;
78197;SDS011;67472;51.554;7.812;2023-11-19T13:23:13;19.55;;;3.85;;
78197;SDS011;67472;51.554;7.812;2023-11-19T13:26:00;20.15;;;3.40;;
78197;SDS011;67472;51.554;7.812;2023-11-19T13:28:51;16.33;;;3.58;;
78197;SDS011;67472;51.554;7.812;2023-11-19T13:31:39;19.10;;;3.55;;
78197;SDS011;67472;51.554;7.812;2023-11-19T13:34:25;14.48;;;3.25;;
78197;SDS011;67472;51.554;7.812;2023-11-19T13:37:11;24.67;;;4.10;;
78197;SDS011;67472;51.554;7.812;2023-11-19T13:39:59;15.60;;;3.05;;
78197;SDS011;67472;51.554;7.812;2023-11-19T13:42:45;19.15;;;3.67;;
78197;SDS011;67472;51.554;7.812;2023-11-19T13:45:31;17.58;;;3.90;;
78197;SDS011;67472;51.554;7.812;2023-11-19T13:48:20;23.77;;;4.70;;
78197;SDS011;67472;51.554;7.812;2023-11-19T13:51:06;22.20;;;3.83;;
78197;SDS011;67472;51.554;7.812;2023-11-19T13:53:56;20.13;;;4.03;;
78197;SDS011;67472;51.554;7.812;2023-11-19T13:56:43;17.85;;;3.80;;
78197;SDS011;67472;51.554;7.812;2023-11-19T13:59:31;23.42;;;3.65;;
78197;SDS011;67472;51.554;7.812;2023-11-19T14:02:18;19.23;;;3.80;;
78197;SDS011;67472;51.554;7.812;2023-11-19T14:05:07;13.75;;;3.03;;
78197;SDS011;67472;51.554;7.812;2023-11-19T14:07:55;13.55;;;3.08;;
78197;SDS011;67472;51.554;7.812;2023-11-19T14:10:42;14.27;;;2.85;;
78197;SDS011;67472;51.554;7.812;2023-11-19T14:13:28;20.88;;;3.15;;
78197;SDS011;67472;51.554;7.812;2023-11-19T14:16:16;16.15;;;3.55;;
78197;SDS011;67472;51.554;7.812;2023-11-19T14:19:03;19.48;;;3.60;;
78197;SDS011;67472;51.554;7.812;2023-11-19T14:21:52;11.75;;;3.22;;
78197;SDS011;67472;51.554;7.812;2023-11-19T14:24:38;17.27;;;3.35;;
78197;SDS011;67472;51.554;7.812;2023-11-19T14:27:27;10.73;;;2.45;;
78197;SDS011;67472;51.554;7.812;2023-11-19T14:30:16;17.77;;;2.90;;
78197;SDS011;67472;51.554;7.812;2023-11-19T14:33:03;16.23;;;3.25;;
78197;SDS011;67472;51.554;7.812;2023-11-19T14:35:49;17.20;;;3.60;;
78197;SDS011;67472;51.554;7.812;2023-11-19T14:38:38;14.25;;;3.35;;
78197;SDS011;67472;51.554;7.812;2023-11-19T14:41:24;20.70;;;4.22;;
78197;SDS011;67472;51.554;7.812;2023-11-19T14:44:11;16.27;;;3.25;;
78197;SDS011;67472;51.554;7.812;2023-11-19T14:46:57;13.93;;;3.65;;
78197;SDS011;67472;51.554;7.812;2023-11-19T14:49:44;18.40;;;3.75;;
78197;SDS011;67472;51.554;7.812;2023-11-19T14:52:32;17.33;;;4.05;;
78197;SDS011;67472;51.554;7.812;2023-11-19T14:55:21;16.10;;;3.80;;
78197;SDS011;67472;51.554;7.812;2023-11-19T14:58:07;19.88;;;3.90;;
78197;SDS011;67472;51.554;7.812;2023-11-19T15:00:54;18.55;;;3.17;;
78197;SDS011;67472;51.554;7.812;2023-11-19T15:03:41;19.15;;;4.05;;
78197;SDS011;67472;51.554;7.812;2023-11-19T15:06:27;19.00;;;3.13;;
78197;SDS011;67472;51.554;7.812;2023-11-19T15:09:15;16.83;;;3.03;;
78197;SDS011;67472;51.554;7.812;2023-11-19T15:12:05;11.73;;;3.53;;
78197;SDS011;67472;51.554;7.812;2023-11-19T15:14:52;18.05;;;2.88;;
78197;SDS011;67472;51.554;7.812;2023-11-19T15:17:39;16.20;;;3.05;;
78197;SDS011;67472;51.554;7.812;2023-11-19T15:20:26;16.67;;;4.07;;
78197;SDS011;67472;51.554;7.812;2023-11-19T15:23:14;14.80;;;3.78;;
78197;SDS011;67472;51.554;7.812;2023-11-19T15:26:00;12.23;;;3.13;;
78197;SDS011;67472;51.554;7.812;2023-11-19T15:28:48;17.83;;;3.35;;
78197;SDS011;67472;51.554;7.812;2023-11-19T15:31:36;20.58;;;3.38;;
78197;SDS011;67472;51.554;7.812;2023-11-19T15:34:24;15.55;;;3.10;;
78197;SDS011;67472;51.554;7.812;2023-11-19T15:37:11;19.33;;;3.15;;
78197;SDS011;67472;51.554;7.812;2023-11-19T15:39:59;10.85;;;2.22;;
78197;SDS011;67472;51.554;7.812;2023-11-19T15:42:49;15.48;;;3.30;;
78197;SDS011;67472;51.554;7.812;2023-11-19T15:45:37;17.20;;;3.28;;
78197;SDS011;67472;51.554;7.812;2023-11-19T15:48:23;19.73;;;3.67;;
78197;SDS011;67472;51.554;7.812;2023-11-19T15:51:10;16.05;;;3.33;;
78197;SDS011;67472;51.554;7.812;2023-11-19T15:53:57;13.93;;;4.25;;
78197;SDS011;67472;51.554;7.812;2023-11-19T15:56:43;15.38;;;4.15;;
78197;SDS011;67472;51.554;7.812;2023-11-19T15:59:31;15.40;;;3.03;;
78197;SDS011;67472;51.554;7.812;2023-11-19T16:02:19;18.42;;;3.63;;
78197;SDS011;67472;51.554;7.812;2023-11-19T16:05:05;14.70;;;4.15;;
78197;SDS011;67472;51.554;7.812;2023-11-19T16:07:53;15.38;;;3.33;;
78197;SDS011;67472;51.554;7.812;2023-11-19T16:10:39;22.58;;;3.42;;
78197;SDS011;67472;51.554;7.812;2023-11-19T16:20:17;12.65;;;2.63;;
78197;SDS011;67472;51.554;7.812;2023-11-19T16:23:05;14.68;;;3.42;;
78197;SDS011;67472;51.554;7.812;2023-11-19T16:25:52;12.45;;;4.35;;
78197;SDS011;67472;51.554;7.812;2023-11-19T16:28:39;10.27;;;2.97;;
78197;SDS011;67472;51.554;7.812;2023-11-19T16:31:29;14.10;;;4.35;;
78197;SDS011;67472;51.554;7.812;2023-11-19T16:34:16;11.80;;;2.83;;
78197;SDS011;67472;51.554;7.812;2023-11-19T16:37:05;14.77;;;3.83;;
78197;SDS011;67472;51.554;7.812;2023-11-19T16:39:51;16.42;;;3.33;;
78197;SDS011;67472;51.554;7.812;2023-11-19T16:42:38;18.25;;;4.57;;
78197;SDS011;67472;51.554;7.812;2023-11-19T16:45:24;13.93;;;3.80;;
78197;SDS011;67472;51.554;7.812;2023-11-19T16:48:11;15.65;;;3.10;;
78197;SDS011;67472;51.554;7.812;2023-11-19T16:50:58;23.88;;;4.80;;
78197;SDS011;67472;51.554;7.812;2023-11-19T16:53:46;16.17;;;3.53;;
78197;SDS011;67472;51.554;7.812;2023-11-19T16:56:32;13.45;;;2.83;;
78197;SDS011;67472;51.554;7.812;2023-11-19T16:59:20;16.80;;;3.50;;
78197;SDS011;67472;51.554;7.812;2023-11-19T17:02:07;23.08;;;4.80;;
78197;SDS011;67472;51.554;7.812;2023-11-19T17:04:55;24.30;;;4.03;;
78197;SDS011;67472;51.554;7.812;2023-11-19T17:07:42;14.90;;;3.53;;